createdAt,value
2022-09-09T00:00:19.776Z,100.00
2022-09-09T00:03:36.138Z,100.00
2022-09-09T00:06:29.525Z,100.00
2022-09-09T00:09:19.487Z,100.00
2022-09-09T00:12:13.719Z,100.00
2022-09-09T00:15:08.894Z,100.00
2022-09-09T00:18:04.542Z,100.00
2022-09-09T00:20:59.459Z,100.00
2022-09-09T00:23:51.976Z,100.00
2022-09-09T00:26:47.051Z,100.00
2022-09-09T00:29:44.611Z,100.00
2022-09-09T00:32:36.589Z,100.00
2022-09-09T00:35:26.234Z,100.00
2022-09-09T00:38:18.561Z,100.00
2022-09-09T00:41:15.405Z,100.00
2022-09-09T00:44:19.318Z,100.00
2022-09-09T00:47:20.561Z,100.00
2022-09-09T00:50:27.543Z,100.00
2022-09-09T00:53:29.720Z,100.00
2022-09-09T00:56:22.169Z,100.00
2022-09-09T00:59:28.511Z,100.00
2022-09-09T01:02:28.536Z,100.00
2022-09-09T01:05:28.458Z,100.00
2022-09-09T01:08:34.762Z,100.00
2022-09-09T01:11:26.618Z,100.00
2022-09-09T01:14:28.722Z,100.00
2022-09-09T01:17:23.763Z,100.00
2022-09-09T01:20:28.718Z,100.00
2022-09-09T01:23:43.319Z,100.00
2022-09-09T01:26:47.593Z,100.00
2022-09-09T01:29:47.248Z,100.00
2022-09-09T01:32:46.249Z,100.00
2022-09-09T01:35:43.553Z,100.00
2022-09-09T01:38:34.728Z,100.00
2022-09-09T01:41:24.529Z,100.00
2022-09-09T01:44:22.969Z,100.00
2022-09-09T01:47:11.931Z,100.00
2022-09-09T01:50:23.008Z,100.00
2022-09-09T01:53:13.155Z,100.00
2022-09-09T01:56:12.805Z,100.00
2022-09-09T01:59:18.968Z,100.00
2022-09-09T02:02:18.599Z,100.00
2022-09-09T02:05:25.358Z,100.00
2022-09-09T02:08:20.854Z,100.00
2022-09-09T02:11:16.838Z,100.00
2022-09-09T02:14:13.528Z,100.00
2022-09-09T02:17:10.487Z,100.00
2022-09-09T02:20:19.717Z,100.00
2022-09-09T02:23:17.895Z,100.00
2022-09-09T02:26:08.698Z,100.00
2022-09-09T02:29:02.100Z,100.00
2022-09-09T02:31:52.365Z,100.00
2022-09-09T02:34:46.636Z,100.00
2022-09-09T02:37:37.022Z,100.00
2022-09-09T02:40:26.346Z,100.00
2022-09-09T02:43:22.730Z,100.00
2022-09-09T02:46:27.254Z,100.00
2022-09-09T02:49:24.761Z,100.00
2022-09-09T02:52:17.114Z,100.00
2022-09-09T02:55:13.460Z,100.00
2022-09-09T02:58:05.005Z,100.00
2022-09-09T03:00:54.663Z,100.00
2022-09-09T03:03:44.978Z,100.00
2022-09-09T03:06:36.395Z,100.00
2022-09-09T03:09:33.755Z,100.00
2022-09-09T03:12:22.716Z,100.00
2022-09-09T03:15:12.090Z,100.00
2022-09-09T03:18:01.654Z,100.00
2022-09-09T03:20:51.847Z,100.00
2022-09-09T03:23:41.067Z,100.00
2022-09-09T03:26:31.194Z,100.00
2022-09-09T03:29:21.181Z,100.00
2022-09-09T03:32:11.368Z,100.00
2022-09-09T03:35:00.752Z,100.00
2022-09-09T03:37:50.318Z,100.00
2022-09-09T03:40:39.886Z,100.00
2022-09-09T03:43:29.467Z,100.00
2022-09-09T03:46:18.711Z,100.00
2022-09-09T03:49:07.584Z,100.00
2022-09-09T03:51:56.956Z,100.00
2022-09-09T03:54:46.119Z,100.00
2022-09-09T03:57:36.359Z,100.00
2022-09-09T04:00:25.676Z,100.00
2022-09-09T04:03:14.432Z,100.00
2022-09-09T04:06:05.208Z,100.00
2022-09-09T04:08:56.038Z,100.00
2022-09-09T04:11:46.023Z,100.00
2022-09-09T04:14:35.608Z,100.00
2022-09-09T04:17:25.375Z,100.00
2022-09-09T04:20:14.134Z,100.00
2022-09-09T04:23:02.886Z,100.00
2022-09-09T04:25:53.278Z,100.00
2022-09-09T04:28:42.239Z,100.00
2022-09-09T04:31:42.231Z,100.00
2022-09-09T04:34:32.036Z,100.00
2022-09-09T04:37:20.997Z,100.00
2022-09-09T04:40:12.059Z,100.00
2022-09-09T04:43:04.037Z,100.00
2022-09-09T04:45:54.280Z,100.00
2022-09-09T04:48:45.961Z,100.00
2022-09-09T04:51:34.810Z,100.00
2022-09-09T04:54:23.386Z,100.00
2022-09-09T04:57:18.486Z,100.00
2022-09-09T05:00:11.493Z,100.00
2022-09-09T05:03:09.262Z,100.00
2022-09-09T05:06:05.114Z,100.00
2022-09-09T05:08:54.533Z,100.00
2022-09-09T05:11:46.814Z,100.00
2022-09-09T05:14:58.709Z,100.00
2022-09-09T05:17:47.670Z,100.00
2022-09-09T05:20:37.452Z,100.00
2022-09-09T05:23:26.615Z,100.00
2022-09-09T05:26:18.233Z,100.00
2022-09-09T05:29:08.836Z,100.00
2022-09-09T05:31:57.689Z,100.00
2022-09-09T05:34:47.366Z,100.00
2022-09-09T05:37:36.944Z,100.00
2022-09-09T05:40:27.134Z,100.00
2022-09-09T05:43:15.889Z,100.00
2022-09-09T05:46:09.298Z,100.00
2022-09-09T05:48:58.937Z,100.00
2022-09-09T05:51:51.369Z,100.00
2022-09-09T05:54:42.183Z,100.00
2022-09-09T05:57:30.723Z,100.00
2022-09-09T06:00:22.348Z,100.00
2022-09-09T06:03:14.059Z,100.00
2022-09-09T06:06:06.210Z,100.00
2022-09-09T06:08:54.958Z,100.00
2022-09-09T06:11:44.333Z,100.00
2022-09-09T06:14:33.700Z,100.00
2022-09-09T06:17:22.864Z,100.00
2022-09-09T06:20:14.096Z,100.00
2022-09-09T06:23:04.450Z,100.00
2022-09-09T06:26:01.348Z,100.00
2022-09-09T06:28:53.366Z,100.00
2022-09-09T06:31:42.463Z,100.00
2022-09-09T06:34:50.007Z,100.00
2022-09-09T06:37:39.787Z,100.00
2022-09-09T06:40:28.744Z,100.00
2022-09-09T06:43:19.263Z,100.00
2022-09-09T06:46:13.675Z,100.00
2022-09-09T06:49:03.002Z,100.00
2022-09-09T06:51:54.164Z,100.00
2022-09-09T06:54:44.809Z,100.00
2022-09-09T06:57:37.334Z,100.00
2022-09-09T07:00:30.963Z,100.00
2022-09-09T07:03:21.112Z,100.00
2022-09-09T07:06:15.359Z,100.00
2022-09-09T07:09:07.613Z,100.00
2022-09-09T07:12:00.239Z,100.00
2022-09-09T07:14:51.081Z,100.00
2022-09-09T07:17:40.450Z,100.00
2022-09-09T07:20:29.618Z,100.00
2022-09-09T07:23:18.373Z,100.00
2022-09-09T07:26:12.862Z,100.00
2022-09-09T07:29:02.678Z,100.00
2022-09-09T07:31:52.221Z,100.00
2022-09-09T07:34:46.501Z,100.00
2022-09-09T07:37:37.065Z,100.00
2022-09-09T07:40:25.857Z,100.00
2022-09-09T07:43:17.482Z,100.00
2022-09-09T07:46:07.725Z,100.00
2022-09-09T07:48:58.674Z,100.00
2022-09-09T07:51:50.505Z,100.00
2022-09-09T07:54:40.485Z,100.00
2022-09-09T07:57:31.290Z,100.00
2022-09-09T08:00:22.262Z,100.00
2022-09-09T08:03:12.944Z,100.00
2022-09-09T08:06:04.108Z,100.00
2022-09-09T08:08:55.470Z,100.00
2022-09-09T08:11:45.100Z,100.00
2022-09-09T08:14:34.265Z,100.00
2022-09-09T08:17:23.842Z,100.00
2022-09-09T08:20:14.237Z,100.00
2022-09-09T08:23:05.444Z,100.00
2022-09-09T08:25:54.202Z,100.00
2022-09-09T08:28:43.778Z,100.00
2022-09-09T08:31:35.195Z,100.00
2022-09-09T08:34:23.128Z,100.00
2022-09-09T08:37:15.164Z,100.00
2022-09-09T08:40:19.610Z,100.00
2022-09-09T08:43:09.059Z,100.00
2022-09-09T08:46:05.832Z,100.00
2022-09-09T08:49:02.603Z,100.00
2022-09-09T08:51:52.530Z,100.00
2022-09-09T08:54:52.138Z,100.00
2022-09-09T08:57:44.807Z,100.00
2022-09-09T09:00:43.538Z,100.00
2022-09-09T09:03:42.575Z,100.00
2022-09-09T09:06:45.436Z,100.00
2022-09-09T09:09:44.043Z,100.00
2022-09-09T09:12:39.976Z,100.00
2022-09-09T09:15:37.125Z,100.00
2022-09-09T09:18:27.922Z,100.00
2022-09-09T09:21:24.157Z,100.00
2022-09-09T09:24:21.981Z,100.00
2022-09-09T09:27:15.450Z,100.00
2022-09-09T09:30:29.915Z,100.00
2022-09-09T09:33:27.964Z,100.00
2022-09-09T09:36:17.590Z,100.00
2022-09-09T09:42:23.133Z,100.00
2022-09-09T09:45:22.575Z,100.00
2022-09-09T09:48:14.551Z,100.00
2022-09-09T09:51:11.136Z,100.00
2022-09-09T09:54:24.466Z,100.00
2022-09-09T09:57:18.114Z,100.00
2022-09-09T10:00:17.874Z,100.00
2022-09-09T10:03:25.556Z,100.00
2022-09-09T10:06:15.740Z,100.00
2022-09-09T10:09:24.024Z,100.00
2022-09-09T10:12:26.839Z,99.97
2022-09-09T10:15:39.983Z,98.88
2022-09-09T10:18:47.172Z,99.06
2022-09-09T10:21:58.434Z,98.36
2022-09-09T10:25:22.622Z,98.47
2022-09-09T10:28:31.801Z,97.41
2022-09-09T10:31:29.278Z,97.54
2022-09-09T10:34:32.510Z,97.28
2022-09-09T10:37:36.013Z,97.12
2022-09-09T10:40:32.757Z,96.91
2022-09-09T10:43:47.523Z,95.25
2022-09-09T10:46:47.546Z,93.42
2022-09-09T10:50:00.255Z,92.41
2022-09-09T10:53:02.123Z,91.64
2022-09-09T10:55:57.841Z,92.09
2022-09-09T10:58:50.191Z,92.79
2022-09-09T11:01:45.667Z,91.70
2022-09-09T11:04:41.317Z,91.19
2022-09-09T11:07:38.649Z,91.22
2022-09-09T11:10:35.750Z,90.83
2022-09-09T11:13:32.133Z,90.53
2022-09-09T11:16:28.214Z,90.31
2022-09-09T11:19:24.205Z,89.49
2022-09-09T11:22:26.886Z,89.55
2022-09-09T11:25:20.986Z,87.85
2022-09-09T11:28:42.084Z,87.98
2022-09-09T11:31:46.035Z,87.19
2022-09-09T11:34:50.108Z,86.78
2022-09-09T11:38:18.555Z,87.04
2022-09-09T11:41:10.564Z,84.16
2022-09-09T11:43:59.380Z,85.25
2022-09-09T11:46:52.530Z,84.92
2022-09-09T11:49:46.255Z,84.24
2022-09-09T11:52:42.769Z,84.39
2022-09-09T11:55:34.050Z,83.88
2022-09-09T11:58:24.866Z,83.56
2022-09-09T12:01:28.162Z,83.30
2022-09-09T12:04:33.806Z,82.71
2022-09-09T12:07:32.244Z,82.29
2022-09-09T12:10:28.389Z,81.00
2022-09-09T12:13:23.334Z,80.57
2022-09-09T12:16:32.042Z,78.13
2022-09-09T12:19:26.445Z,76.39
2022-09-09T12:22:29.070Z,76.72
2022-09-09T12:25:31.344Z,76.32
2022-09-09T12:28:23.249Z,78.72
2022-09-09T12:31:18.398Z,77.59
2022-09-09T12:34:16.429Z,78.93
2022-09-09T12:37:14.884Z,77.75
2022-09-09T12:40:06.947Z,77.46
2022-09-09T12:42:55.876Z,76.28
2022-09-09T12:45:45.898Z,74.42
2022-09-09T12:48:38.345Z,73.03
2022-09-09T12:51:30.713Z,72.55
2022-09-09T12:54:20.340Z,72.10
2022-09-09T12:57:14.959Z,72.30
2022-09-09T13:00:15.235Z,73.56
2022-09-09T13:03:17.303Z,74.35
2022-09-09T13:06:20.212Z,74.37
2022-09-09T13:09:12.285Z,73.70
2022-09-09T13:12:07.942Z,73.78
2022-09-09T13:14:58.134Z,71.64
2022-09-09T13:17:50.653Z,70.52
2022-09-09T13:20:46.908Z,72.51
2022-09-09T13:23:38.493Z,72.53
2022-09-09T13:26:29.863Z,72.83
2022-09-09T13:29:20.344Z,71.86
2022-09-09T13:32:18.431Z,71.45
2022-09-09T13:35:25.706Z,71.99
2022-09-09T13:38:17.283Z,72.39
2022-09-09T13:41:07.869Z,74.54
2022-09-09T13:43:58.115Z,74.56
2022-09-09T13:46:48.302Z,75.26
2022-09-09T13:49:36.855Z,74.43
2022-09-09T13:52:31.986Z,75.38
2022-09-09T13:55:22.904Z,76.86
2022-09-09T13:58:19.504Z,76.13
2022-09-09T14:01:08.703Z,76.35
2022-09-09T14:03:59.475Z,77.18
2022-09-09T14:06:49.457Z,77.00
2022-09-09T14:09:38.623Z,78.23
2022-09-09T14:12:27.994Z,79.40
2022-09-09T14:15:18.595Z,81.88
2022-09-09T14:18:10.348Z,83.91
2022-09-09T14:20:59.263Z,85.92
2022-09-09T14:23:51.615Z,88.20
2022-09-09T14:26:41.398Z,88.97
2022-09-09T14:29:30.768Z,89.37
2022-09-09T14:32:20.162Z,90.37
2022-09-09T14:35:12.372Z,90.43
2022-09-09T14:38:01.541Z,91.32
2022-09-09T14:40:50.704Z,92.31
2022-09-09T14:43:41.319Z,93.80
2022-09-09T14:46:30.190Z,95.04
2022-09-09T14:49:19.426Z,95.64
2022-09-09T14:52:09.412Z,96.72
2022-09-09T14:54:58.780Z,97.61
2022-09-09T14:57:47.337Z,98.07
2022-09-09T15:00:36.877Z,99.06
2022-09-09T15:03:26.686Z,100.00
2022-09-09T15:06:16.259Z,100.00
2022-09-09T15:09:05.013Z,100.00
2022-09-09T15:11:55.507Z,100.00
2022-09-09T15:14:43.462Z,100.00
2022-09-09T15:17:32.918Z,100.00
2022-09-09T15:20:21.472Z,100.00
2022-09-09T15:23:11.661Z,100.00
2022-09-09T15:26:00.003Z,100.00
2022-09-09T15:28:50.323Z,100.00
2022-09-09T15:34:40.813Z,100.00
2022-09-09T15:37:29.736Z,100.00
2022-09-09T15:40:18.586Z,100.00
2022-09-09T15:43:08.102Z,100.00
2022-09-09T15:46:06.937Z,100.00
2022-09-09T15:48:57.224Z,100.00
2022-09-09T15:51:47.598Z,100.00
2022-09-09T15:54:39.267Z,100.00
2022-09-09T15:57:28.729Z,100.00
2022-09-09T16:00:18.863Z,100.00
2022-09-09T16:03:08.025Z,100.00
2022-09-09T16:05:56.985Z,100.00
2022-09-09T16:08:47.789Z,100.00
2022-09-09T16:11:38.595Z,100.00
2022-09-09T16:14:28.170Z,100.00
2022-09-09T16:17:17.331Z,100.00
2022-09-09T16:20:09.307Z,100.00
2022-09-09T16:22:57.916Z,100.00
2022-09-09T16:25:53.839Z,100.00
2022-09-09T16:28:44.234Z,100.00
2022-09-09T16:31:34.492Z,100.00
2022-09-09T16:34:23.999Z,100.00
2022-09-09T16:37:12.545Z,100.00
2022-09-09T16:40:01.123Z,100.00
2022-09-09T16:42:49.443Z,100.00
2022-09-09T16:45:45.568Z,100.00
2022-09-09T16:48:34.808Z,100.00
2022-09-09T16:51:24.496Z,100.00
2022-09-09T16:54:14.500Z,100.00
2022-09-09T16:57:02.964Z,100.00
2022-09-09T16:59:54.519Z,100.00
2022-09-09T17:02:43.665Z,100.00
2022-09-09T17:05:33.378Z,100.00
2022-09-09T17:08:21.961Z,100.00
2022-09-09T17:11:15.638Z,100.00
2022-09-09T17:14:04.391Z,100.00
2022-09-09T17:16:53.350Z,100.00
2022-09-09T17:19:43.128Z,100.00
2022-09-09T17:22:33.315Z,100.00
2022-09-09T17:25:23.096Z,100.00
2022-09-09T17:28:12.880Z,100.00
2022-09-09T17:31:03.321Z,100.00
2022-09-09T17:33:53.643Z,100.00
2022-09-09T17:36:42.215Z,100.00
2022-09-09T17:39:30.969Z,100.00
2022-09-09T17:42:19.728Z,100.00
2022-09-09T17:45:09.301Z,100.00
2022-09-09T17:47:58.262Z,100.00
2022-09-09T17:50:47.019Z,100.00
2022-09-09T17:53:39.661Z,100.00
2022-09-09T17:56:30.974Z,100.00
2022-09-09T17:59:21.065Z,100.00
2022-09-09T18:02:12.371Z,100.00
2022-09-09T18:05:02.089Z,100.00
2022-09-09T18:07:52.988Z,100.00
2022-09-09T18:10:43.700Z,100.00
2022-09-09T18:13:32.910Z,100.00
2022-09-09T18:16:22.472Z,100.00
2022-09-09T18:19:13.461Z,100.00
2022-09-09T18:22:04.421Z,100.00
2022-09-09T18:24:54.610Z,100.00
2022-09-09T18:27:43.781Z,100.00
2022-09-09T18:30:32.528Z,100.00
2022-09-09T18:33:20.875Z,100.00
2022-09-09T18:36:12.172Z,100.00
2022-09-09T18:39:02.919Z,100.00
2022-09-09T18:41:53.335Z,100.00
2022-09-09T18:44:42.784Z,100.00
2022-09-09T18:47:31.613Z,100.00
2022-09-09T18:50:19.956Z,100.00
2022-09-09T18:53:09.944Z,100.00
2022-09-09T18:56:03.820Z,100.00
2022-09-09T18:58:55.614Z,100.00
2022-09-09T19:01:45.041Z,100.00
2022-09-09T19:04:34.180Z,100.00
2022-09-09T19:07:22.730Z,100.00
2022-09-09T19:10:11.894Z,100.00
2022-09-09T19:13:00.855Z,100.00
2022-09-09T19:15:50.060Z,100.00
2022-09-09T19:18:39.185Z,100.00
2022-09-09T19:21:33.883Z,100.00
2022-09-09T19:24:24.527Z,100.00
2022-09-09T19:27:13.092Z,100.00
2022-09-09T19:30:02.400Z,100.00
2022-09-09T19:32:54.087Z,100.00
2022-09-09T19:35:42.572Z,100.00
2022-09-09T19:38:32.147Z,100.00
2022-09-09T19:41:24.561Z,100.00
2022-09-09T19:44:15.548Z,100.00
2022-09-09T19:47:04.556Z,100.00
2022-09-09T19:49:53.312Z,100.00
2022-09-09T19:52:41.664Z,100.00
2022-09-09T19:55:30.520Z,100.00
2022-09-09T19:58:19.912Z,100.00
2022-09-09T20:01:10.799Z,100.00
2022-09-09T20:04:02.369Z,100.00
2022-09-09T20:06:51.783Z,100.00
2022-09-09T20:09:40.127Z,100.00
2022-09-09T20:12:28.063Z,100.00
2022-09-09T20:15:16.633Z,100.00
2022-09-09T20:18:06.191Z,100.00
2022-09-09T20:21:00.068Z,100.00
2022-09-09T20:23:50.467Z,100.00
2022-09-09T20:26:40.362Z,100.00
2022-09-09T20:29:30.428Z,100.00
2022-09-09T20:32:19.389Z,100.00
2022-09-09T20:35:09.781Z,100.00
2022-09-09T20:38:00.174Z,100.00
2022-09-09T20:40:50.159Z,100.00
2022-09-09T20:43:38.709Z,100.00
2022-09-09T20:46:31.117Z,100.00
2022-09-09T20:49:21.339Z,100.00
2022-09-09T20:52:11.293Z,100.00
2022-09-09T20:55:00.285Z,100.00
2022-09-09T20:57:49.448Z,100.00
2022-09-09T21:00:38.204Z,100.00
2022-09-09T21:03:29.808Z,100.00
2022-09-09T21:06:18.177Z,100.00
2022-09-09T21:09:10.801Z,100.00
2022-09-09T21:11:59.573Z,100.00
2022-09-09T21:14:47.924Z,100.00
2022-09-09T21:17:37.086Z,100.00
2022-09-09T21:20:26.046Z,100.00
2022-09-09T21:23:16.540Z,100.00
2022-09-09T21:26:07.242Z,100.00
2022-09-09T21:28:56.407Z,100.00
2022-09-09T21:31:45.211Z,100.00
2022-09-09T21:34:35.352Z,100.00
2022-09-09T21:37:23.699Z,100.00
2022-09-09T21:40:13.102Z,100.00
2022-09-09T21:43:03.628Z,100.00
2022-09-09T21:45:53.238Z,100.00
2022-09-09T21:48:42.208Z,100.00
2022-09-09T21:51:31.569Z,100.00
2022-09-09T21:54:20.325Z,100.00
2022-09-09T21:57:09.490Z,100.00
2022-09-09T21:59:58.454Z,100.00
2022-09-09T22:02:47.242Z,100.00
2022-09-09T22:05:41.382Z,100.00
2022-09-09T22:08:30.740Z,100.00
2022-09-09T22:11:21.855Z,100.00
2022-09-09T22:14:10.421Z,100.00
2022-09-09T22:16:59.378Z,100.00
2022-09-09T22:19:48.142Z,100.00
2022-09-09T22:22:37.504Z,100.00
2022-09-09T22:25:26.053Z,100.00
2022-09-09T22:28:16.040Z,100.00
2022-09-09T22:31:06.329Z,100.00
2022-09-09T22:33:55.597Z,100.00
2022-09-09T22:36:44.363Z,100.00
2022-09-09T22:39:33.363Z,100.00
2022-09-09T22:42:22.200Z,100.00
2022-09-09T22:45:12.465Z,100.00
2022-09-09T22:48:01.421Z,100.00
2022-09-09T22:50:51.004Z,100.00
2022-09-09T22:53:41.824Z,100.00
2022-09-09T22:56:31.175Z,100.00
2022-09-09T22:59:20.536Z,100.00
2022-09-09T23:02:09.705Z,100.00
2022-09-09T23:04:59.076Z,100.00
2022-09-09T23:07:47.830Z,100.00
2022-09-09T23:10:42.663Z,100.00
2022-09-09T23:13:32.670Z,100.00
2022-09-09T23:16:24.343Z,100.00
2022-09-09T23:19:16.127Z,100.00
2022-09-09T23:22:06.467Z,100.00
2022-09-09T23:24:55.309Z,100.00
2022-09-09T23:27:43.661Z,100.00
2022-09-09T23:30:32.825Z,100.00
2022-09-09T23:33:21.117Z,100.00
2022-09-09T23:36:14.051Z,100.00
2022-09-09T23:39:04.410Z,100.00
2022-09-09T23:41:53.171Z,100.00
2022-09-09T23:44:42.535Z,100.00
2022-09-09T23:47:30.880Z,100.00
2022-09-09T23:50:20.663Z,100.00
2022-09-09T23:53:10.443Z,100.00
2022-09-09T23:55:58.777Z,100.00
2022-09-09T23:58:48.155Z,100.00
